Clarks Hill, SC

3:56 AM EDT on June 02, 2015 (GMT -0400)
Summer Place | | Change Station
CLOSE
Current Station
Personal Weather Station
Location: Evans, GA
Elevation: 351 ft
Nearby Weather Stations

Elev 351 ft 33.56 °N, 82.14 °W | Updated 14 seconds ago

Rain
Rain
68.4 °F
Feels Like 68.4 °F
N
0.0
Wind Variable Wind from North
Gusts 0.0 mph

Today
High -- | Low -- °F
--% Chance of Precip.
Yesterday
High -- | Low -- °F
Precip. -- in
6:19 AM 8:34 PM
Full, 100% visible
Pressure 29.99 in
Visibility 10.0 miles
Clouds Few 200 ft
Scattered Clouds 11000 ft
Dew Point 68 °F
Humidity 99%
Rainfall 0.00 in
Snow Depth Not available.
UV 0 out of 12
Pollen 4.90 out of 12
Air Quality Not available.
Flu Activity Local Activity
METAR KDNL 020753Z AUTO 17003KT 10SM FEW002 SCT110 21/19 A3000 RMK AO2 RAE22 SLP155 P0000 T02060194

More Conditions Fewer Conditions

Pressure 29.99 in
Visibility 10.0 miles
Clouds Few 200 ft
Scattered Clouds 11000 ft
Dew Point 68 °F
Humidity 99%
Rainfall 0.00 in
Snow Depth Not available.
UV 0 out of 12
Pollen 4.90 out of 12
Air Quality Not available.
Flu Activity Local Activity
METAR KDNL 020753Z AUTO 17003KT 10SM FEW002 SCT110 21/19 A3000 RMK AO2 RAE22 SLP155 P0000 T02060194

More Conditions Fewer Conditions

10-Day Weather Forecast

Almanac

Astronomy

Jun. 02, 2015 Rise Set
Actual Time
Civil Twilight
Nautical Twilight
Astronomical Twilight
Moon
Length of Visible Light
Length of Day
Tomorrow will be .
, % of the Moon is Illuminated

Today's Extremes

State Highs State Lows

Community

WunderPhotos

Upload Photos

1,825,905 photos uploaded!

WunderBlogs® & News

Nearby

Air Quality

  Air Quality AQ Index Pollutant
Not available.

Snow Depth

Station Depth Elevation

Earthquake Activity

City Distance Mag. Time & Date
Minimum magnitude displayed is 2.5.

Coastal Water Temperatures

Place Temperature

Stations

Nearby Weather Stations

Station Location Temp. Windchill Dew Point Humidity Wind Precip. Elev Updated Type